createdAt,value
2022-11-28T00:02:21.226Z,4.00
2022-11-28T00:05:06.671Z,3.65
2022-11-28T00:07:51.739Z,3.45
2022-11-28T00:10:40.773Z,3.70
2022-11-28T00:13:25.971Z,3.35
2022-11-28T00:16:21.190Z,3.07
2022-11-28T00:19:06.610Z,3.03
2022-11-28T00:21:51.865Z,3.38
2022-11-28T00:24:37.023Z,3.40
2022-11-28T00:27:22.035Z,3.00
2022-11-28T00:30:07.883Z,3.63
2022-11-28T00:32:52.854Z,3.85
2022-11-28T00:35:37.873Z,3.95
2022-11-28T00:38:22.870Z,3.17
2022-11-28T00:41:11.657Z,3.40
2022-11-28T00:43:57.418Z,3.77
2022-11-28T00:46:42.678Z,4.15
2022-11-28T00:49:27.853Z,3.13
2022-11-28T00:52:13.173Z,3.67
2022-11-28T00:54:58.059Z,2.90
2022-11-28T00:57:43.135Z,4.03
2022-11-28T01:00:28.080Z,3.28
2022-11-28T01:03:13.222Z,3.47
2022-11-28T01:05:58.538Z,3.67
2022-11-28T01:08:43.539Z,3.40
2022-11-28T01:11:29.350Z,4.20
2022-11-28T01:14:15.059Z,4.18
2022-11-28T01:16:59.859Z,3.60
2022-11-28T01:19:44.935Z,4.10
2022-11-28T01:22:29.863Z,3.53
2022-11-28T01:25:14.996Z,4.10
2022-11-28T01:28:00.079Z,2.28
2022-11-28T01:30:45.144Z,3.72
2022-11-28T01:33:29.966Z,3.65
2022-11-28T01:36:19.506Z,3.97
2022-11-28T01:39:04.745Z,4.50
2022-11-28T01:41:49.794Z,3.10
2022-11-28T01:44:34.865Z,3.53
2022-11-28T01:47:27.703Z,3.30
2022-11-28T01:50:12.932Z,3.50
2022-11-28T01:53:01.506Z,3.03
2022-11-28T01:55:56.978Z,3.25
2022-11-28T01:58:46.472Z,3.50
2022-11-28T02:01:31.690Z,4.00
2022-11-28T02:04:16.863Z,1.92
2022-11-28T02:07:01.953Z,2.87
2022-11-28T02:09:47.060Z,2.75
2022-11-28T02:12:51.197Z,3.83
2022-11-28T02:16:00.720Z,3.72
2022-11-28T02:19:21.664Z,3.58
2022-11-28T02:22:21.822Z,3.53
2022-11-28T02:25:47.770Z,3.42
2022-11-28T02:28:38.820Z,3.83
2022-11-28T02:32:03.465Z,3.47
2022-11-28T02:34:57.054Z,3.00
2022-11-28T02:37:52.242Z,3.50
2022-11-28T02:40:37.418Z,3.70
2022-11-28T02:43:33.184Z,4.03
2022-11-28T02:46:28.289Z,4.07
2022-11-28T02:49:22.354Z,3.60
2022-11-28T02:52:12.834Z,3.40
2022-11-28T02:54:59.484Z,3.85
2022-11-28T02:57:50.205Z,3.60
2022-11-28T03:00:38.214Z,3.78
2022-11-28T03:03:28.800Z,4.05
2022-11-28T03:06:38.511Z,2.70
2022-11-28T03:09:34.895Z,3.97
2022-11-28T03:12:30.246Z,3.25
2022-11-28T03:15:19.895Z,3.25
2022-11-28T03:18:14.511Z,2.92
2022-11-28T03:21:21.836Z,2.80
2022-11-28T03:24:26.511Z,3.00
2022-11-28T03:27:30.585Z,3.25
2022-11-28T03:30:37.833Z,3.70
2022-11-28T03:33:27.422Z,2.72
2022-11-28T03:36:18.142Z,3.23
2022-11-28T03:39:10.987Z,3.78
2022-11-28T03:42:03.168Z,4.00
2022-11-28T03:44:54.304Z,3.92
2022-11-28T03:47:54.754Z,3.60
2022-11-28T03:50:45.606Z,4.30
2022-11-28T03:53:38.564Z,2.95
2022-11-28T03:56:33.563Z,3.63
2022-11-28T03:59:35.784Z,3.28
2022-11-28T04:02:33.406Z,3.60
2022-11-28T04:05:24.790Z,3.60
2022-11-28T04:08:30.883Z,3.53
2022-11-28T04:11:20.966Z,3.88
2022-11-28T04:14:26.337Z,4.05
2022-11-28T04:17:38.065Z,3.47
2022-11-28T04:20:55.214Z,3.27
2022-11-28T04:23:43.899Z,3.45
2022-11-28T04:26:33.642Z,2.85
2022-11-28T04:29:23.317Z,2.30
2022-11-28T04:32:10.274Z,3.75
2022-11-28T04:35:05.033Z,4.00
2022-11-28T04:37:51.415Z,3.50
2022-11-28T04:40:50.133Z,4.00
2022-11-28T04:43:43.021Z,3.75
2022-11-28T04:46:35.520Z,3.50
2022-11-28T04:49:21.397Z,2.87
2022-11-28T04:52:29.395Z,3.38
2022-11-28T04:55:38.087Z,4.50
2022-11-28T04:58:34.191Z,3.72
2022-11-28T05:01:25.479Z,3.75
2022-11-28T05:04:10.856Z,3.97
2022-11-28T05:07:06.048Z,4.05
2022-11-28T05:09:51.425Z,3.78
2022-11-28T05:12:36.509Z,4.18
2022-11-28T05:15:21.517Z,4.30
2022-11-28T05:18:06.811Z,4.20
2022-11-28T05:20:52.103Z,3.90
2022-11-28T05:23:43.127Z,4.10
2022-11-28T05:26:32.069Z,3.53
2022-11-28T05:29:17.336Z,3.63
2022-11-28T05:32:02.560Z,3.07
2022-11-28T05:34:47.503Z,4.20
2022-11-28T05:37:32.533Z,4.13
2022-11-28T05:40:17.775Z,4.80
2022-11-28T05:43:02.623Z,4.03
2022-11-28T05:45:47.699Z,4.10
2022-11-28T05:48:32.588Z,4.50
2022-11-28T05:51:19.802Z,3.40
2022-11-28T05:54:05.466Z,4.65
2022-11-28T05:56:50.695Z,4.45
2022-11-28T05:59:35.991Z,5.17
2022-11-28T06:02:21.383Z,4.20
2022-11-28T06:05:21.329Z,4.75
2022-11-28T06:08:12.310Z,4.18
2022-11-28T06:10:58.269Z,4.72
2022-11-28T06:13:44.634Z,5.00
2022-11-28T06:16:30.676Z,4.60
2022-11-28T06:19:15.654Z,4.95
2022-11-28T06:22:01.648Z,4.53
2022-11-28T06:24:46.800Z,5.25
2022-11-28T06:27:31.707Z,4.30
2022-11-28T06:30:17.206Z,4.57
2022-11-28T06:33:02.244Z,4.63
2022-11-28T06:35:47.377Z,4.60
2022-11-28T06:38:33.004Z,3.70
2022-11-28T06:41:19.411Z,5.03
2022-11-28T06:44:04.432Z,3.17
2022-11-28T06:46:49.533Z,4.10
2022-11-28T06:49:35.581Z,5.07
2022-11-28T06:52:20.527Z,4.50
2022-11-28T06:55:05.749Z,4.30
2022-11-28T06:57:50.609Z,4.78
2022-11-28T07:00:36.472Z,4.65
2022-11-28T07:03:21.653Z,4.68
2022-11-28T07:06:07.622Z,4.30
2022-11-28T07:08:53.480Z,4.50
2022-11-28T07:11:41.854Z,4.78
2022-11-28T07:14:27.208Z,4.35
2022-11-28T07:17:11.991Z,4.55
2022-11-28T07:19:57.178Z,4.53
2022-11-28T07:22:43.582Z,4.63
2022-11-28T07:25:28.760Z,5.03
2022-11-28T07:28:13.934Z,5.30
2022-11-28T07:31:05.327Z,4.80
2022-11-28T07:33:51.072Z,4.68
2022-11-28T07:36:36.685Z,4.40
2022-11-28T07:39:21.838Z,4.22
2022-11-28T07:42:06.907Z,4.70
2022-11-28T07:44:51.959Z,5.07
2022-11-28T07:47:37.158Z,3.65
2022-11-28T07:50:22.182Z,4.30
2022-11-28T07:53:07.531Z,4.05
2022-11-28T07:55:52.535Z,4.18
2022-11-28T07:58:38.859Z,4.13
2022-11-28T08:01:28.101Z,4.32
2022-11-28T08:04:13.055Z,4.53
2022-11-28T08:06:58.065Z,3.97
2022-11-28T08:09:43.515Z,5.05
2022-11-28T08:12:28.695Z,4.80
2022-11-28T08:15:13.744Z,4.90
2022-11-28T08:17:58.912Z,4.40
2022-11-28T08:20:43.993Z,4.30
2022-11-28T08:23:28.849Z,4.28
2022-11-28T08:26:15.793Z,4.35
2022-11-28T08:29:02.571Z,4.40
2022-11-28T08:31:47.509Z,4.23
2022-11-28T08:34:32.378Z,4.13
2022-11-28T08:37:17.430Z,5.25
2022-11-28T08:40:02.772Z,4.93
2022-11-28T08:42:47.690Z,4.95
2022-11-28T08:45:32.631Z,5.20
2022-11-28T08:48:17.807Z,5.05
2022-11-28T08:51:03.783Z,4.93
2022-11-28T08:53:49.738Z,4.38
2022-11-28T08:56:35.457Z,4.43
2022-11-28T08:59:20.605Z,5.10
2022-11-28T09:02:05.785Z,5.13
2022-11-28T09:04:50.646Z,5.15
2022-11-28T09:07:35.685Z,4.85
2022-11-28T09:10:21.054Z,5.20
2022-11-28T09:13:07.008Z,4.47
2022-11-28T09:15:53.762Z,4.60
2022-11-28T09:18:38.910Z,4.60
2022-11-28T09:21:24.013Z,5.80
2022-11-28T09:24:09.609Z,5.05
2022-11-28T09:26:54.409Z,4.73
2022-11-28T09:29:39.462Z,4.68
2022-11-28T09:32:24.710Z,4.72
2022-11-28T09:35:09.912Z,4.80
2022-11-28T09:37:55.169Z,5.22
2022-11-28T09:40:43.313Z,4.57
2022-11-28T09:43:28.200Z,5.00
2022-11-28T09:46:22.661Z,4.95
2022-11-28T09:49:21.958Z,4.78
2022-11-28T09:52:26.616Z,4.78
2022-11-28T09:55:17.626Z,4.60
2022-11-28T09:58:12.485Z,4.78
2022-11-28T10:01:30.095Z,5.07
2022-11-28T10:04:26.474Z,4.90
2022-11-28T10:07:55.008Z,5.20
2022-11-28T10:11:01.721Z,4.80
2022-11-28T10:14:15.586Z,4.97
2022-11-28T10:17:05.639Z,5.18
2022-11-28T10:19:57.289Z,5.78
2022-11-28T10:22:53.879Z,5.70
2022-11-28T10:25:43.879Z,4.97
2022-11-28T10:28:34.507Z,5.32
2022-11-28T10:31:34.749Z,5.35
2022-11-28T10:34:28.228Z,5.57
2022-11-28T10:37:24.619Z,5.07
2022-11-28T10:40:28.070Z,5.30
2022-11-28T10:43:28.888Z,4.53
2022-11-28T10:46:55.478Z,5.05
2022-11-28T10:50:04.427Z,5.75
2022-11-28T10:53:14.698Z,4.85
2022-11-28T10:56:11.717Z,5.00
2022-11-28T10:59:31.061Z,4.95
2022-11-28T11:02:32.155Z,5.05
2022-11-28T11:05:24.278Z,4.82
2022-11-28T11:08:20.319Z,4.72
2022-11-28T11:11:37.011Z,4.67
2022-11-28T11:14:33.865Z,5.10
2022-11-28T11:17:36.299Z,5.05
2022-11-28T11:20:37.825Z,5.05
2022-11-28T11:23:23.082Z,4.95
2022-11-28T11:26:19.570Z,5.27
2022-11-28T11:29:05.455Z,5.13
2022-11-28T11:31:53.069Z,4.93
2022-11-28T11:34:44.107Z,5.07
2022-11-28T11:37:37.641Z,4.68
2022-11-28T11:40:28.986Z,4.80
2022-11-28T11:43:29.027Z,4.90
2022-11-28T11:46:15.832Z,5.32
2022-11-28T11:49:00.771Z,5.43
2022-11-28T11:51:56.180Z,5.43
2022-11-28T11:55:07.015Z,4.97
2022-11-28T11:57:54.479Z,4.65
2022-11-28T12:00:40.369Z,5.18
2022-11-28T12:03:48.305Z,5.10
2022-11-28T12:06:55.146Z,5.43
2022-11-28T12:09:49.246Z,4.80
2022-11-28T12:12:38.366Z,5.28
2022-11-28T12:15:41.666Z,5.13
2022-11-28T12:18:49.070Z,5.15
2022-11-28T12:21:49.450Z,5.15
2022-11-28T12:24:50.541Z,4.70
2022-11-28T12:27:52.746Z,4.63
2022-11-28T12:31:08.347Z,4.75
2022-11-28T12:34:13.369Z,4.90
2022-11-28T12:37:16.133Z,5.10
2022-11-28T12:40:18.866Z,5.20
2022-11-28T12:43:30.281Z,5.70
2022-11-28T12:46:36.628Z,5.38
2022-11-28T12:49:52.125Z,4.43
2022-11-28T12:52:55.944Z,5.32
2022-11-28T12:55:51.047Z,4.83
2022-11-28T12:58:58.579Z,4.82
2022-11-28T13:01:55.192Z,4.72
2022-11-28T13:04:53.965Z,4.80
2022-11-28T13:08:05.890Z,5.63
2022-11-28T13:11:27.818Z,5.20
2022-11-28T13:14:31.893Z,4.90
2022-11-28T13:17:55.622Z,5.25
2022-11-28T13:21:05.215Z,4.65
2022-11-28T13:24:06.600Z,5.05
2022-11-28T13:27:09.280Z,5.17
2022-11-28T13:30:13.010Z,5.68
2022-11-28T13:33:07.081Z,5.80
2022-11-28T13:35:52.754Z,5.78
2022-11-28T13:39:12.961Z,5.88
2022-11-28T13:42:28.875Z,5.53
2022-11-28T13:45:35.795Z,5.43
2022-11-28T13:52:18.076Z,5.20
2022-11-28T13:55:03.307Z,5.55
2022-11-28T13:57:48.746Z,5.37
2022-11-28T14:00:34.082Z,5.40
2022-11-28T14:03:20.592Z,5.97
2022-11-28T14:06:07.113Z,5.65
2022-11-28T14:09:18.763Z,5.70
2022-11-28T14:12:22.117Z,5.10
2022-11-28T14:15:40.744Z,5.18
2022-11-28T14:18:56.660Z,4.78
2022-11-28T14:21:45.177Z,4.95
2022-11-28T14:24:55.205Z,5.47
2022-11-28T14:27:47.040Z,5.20
2022-11-28T14:30:38.457Z,5.68
2022-11-28T14:33:37.451Z,6.38
2022-11-28T14:36:24.635Z,5.50
2022-11-28T14:39:30.935Z,5.70
2022-11-28T14:42:36.780Z,5.90
2022-11-28T14:45:32.406Z,5.90
2022-11-28T14:48:32.172Z,5.80
2022-11-28T14:51:17.150Z,5.32
2022-11-28T14:54:02.385Z,6.20
2022-11-28T14:56:49.562Z,6.30
2022-11-28T14:59:39.809Z,5.90
2022-11-28T15:02:45.369Z,6.00
2022-11-28T15:05:37.772Z,6.03
2022-11-28T15:08:37.166Z,6.28
2022-11-28T15:11:40.963Z,6.20
2022-11-28T15:14:28.593Z,5.57
2022-11-28T15:17:14.770Z,5.55
2022-11-28T15:20:08.917Z,6.28
2022-11-28T15:22:54.289Z,5.80
2022-11-28T15:25:39.784Z,5.90
2022-11-28T15:28:28.210Z,5.82
2022-11-28T15:31:21.558Z,6.00
2022-11-28T15:34:10.100Z,5.65
2022-11-28T15:37:00.717Z,5.63
2022-11-28T15:39:48.030Z,5.03
2022-11-28T15:42:35.362Z,6.00
2022-11-28T15:45:25.796Z,5.18
2022-11-28T15:48:27.594Z,5.18
2022-11-28T15:51:26.793Z,5.70
2022-11-28T15:54:35.110Z,5.50
2022-11-28T15:57:25.862Z,5.57
2022-11-28T16:00:19.163Z,6.32
2022-11-28T16:03:05.641Z,6.57
2022-11-28T16:05:53.102Z,6.43
2022-11-28T16:08:48.962Z,6.97
2022-11-28T16:11:35.589Z,6.47
2022-11-28T16:14:28.756Z,6.53
2022-11-28T16:17:25.717Z,6.32
2022-11-28T16:20:34.611Z,6.25
2022-11-28T16:23:27.327Z,5.77
2022-11-28T16:26:36.094Z,6.28
2022-11-28T16:29:24.247Z,6.78
2022-11-28T16:32:21.601Z,7.22
2022-11-28T16:35:12.187Z,6.90
2022-11-28T16:38:25.898Z,7.50
2022-11-28T16:41:21.032Z,7.28
2022-11-28T16:44:11.542Z,7.30
2022-11-28T16:46:57.976Z,6.25
2022-11-28T16:50:05.211Z,7.28
2022-11-28T16:52:55.353Z,6.83
2022-11-28T16:55:41.258Z,7.38
2022-11-28T16:58:26.031Z,7.63
2022-11-28T17:01:11.203Z,7.15
2022-11-28T17:03:57.617Z,7.03
2022-11-28T17:06:42.653Z,7.33
2022-11-28T17:09:27.520Z,7.22
2022-11-28T17:12:24.798Z,8.15
2022-11-28T17:15:21.713Z,8.45
2022-11-28T17:18:06.760Z,9.07
2022-11-28T17:20:51.773Z,8.57
2022-11-28T17:23:36.922Z,8.93
2022-11-28T17:26:21.729Z,7.63
2022-11-28T17:29:10.809Z,7.63
2022-11-28T17:31:58.638Z,7.60
2022-11-28T17:34:45.914Z,7.60
2022-11-28T17:37:31.062Z,7.43
2022-11-28T17:40:36.406Z,7.63
2022-11-28T17:43:22.134Z,8.55
2022-11-28T17:46:07.521Z,8.32
2022-11-28T17:48:52.465Z,7.10
2022-11-28T17:51:37.970Z,8.27
2022-11-28T17:54:24.940Z,7.38
2022-11-28T17:57:09.890Z,7.35
2022-11-28T17:59:55.024Z,7.13
2022-11-28T18:02:40.568Z,8.10
2022-11-28T18:05:25.770Z,9.52
2022-11-28T18:08:11.027Z,9.93
2022-11-28T18:11:22.018Z,8.15
2022-11-28T18:14:07.168Z,8.70
2022-11-28T18:16:52.373Z,9.57
2022-11-28T18:19:37.568Z,9.75
2022-11-28T18:22:22.427Z,10.52
2022-11-28T18:25:08.192Z,10.27
2022-11-28T18:27:53.463Z,10.30
2022-11-28T18:30:46.585Z,10.77
2022-11-28T18:33:34.241Z,9.05
2022-11-28T18:36:22.240Z,9.43
2022-11-28T18:39:11.856Z,10.38
2022-11-28T18:41:59.786Z,12.48
2022-11-28T18:44:44.743Z,11.83
2022-11-28T18:47:29.737Z,10.43
2022-11-28T18:50:15.088Z,10.95
2022-11-28T18:53:00.689Z,10.90
2022-11-28T18:55:45.658Z,12.32
2022-11-28T18:58:34.646Z,10.83
2022-11-28T19:01:30.024Z,10.32
2022-11-28T19:04:16.651Z,9.50
2022-11-28T19:07:03.547Z,9.32
2022-11-28T19:09:48.547Z,10.25
2022-11-28T19:12:33.723Z,10.07
2022-11-28T19:15:18.834Z,10.27
2022-11-28T19:18:04.126Z,10.55
2022-11-28T19:20:49.258Z,9.65
2022-11-28T19:23:34.382Z,10.55
2022-11-28T19:26:21.686Z,10.47
2022-11-28T19:29:06.929Z,10.32
2022-11-28T19:31:51.865Z,10.80
2022-11-28T19:34:36.841Z,9.95
2022-11-28T19:37:21.689Z,10.32
2022-11-28T19:40:07.558Z,11.13
2022-11-28T19:42:52.302Z,13.60
2022-11-28T19:45:37.303Z,15.70
2022-11-28T19:48:22.723Z,15.65
2022-11-28T19:51:09.731Z,14.82
2022-11-28T19:53:59.874Z,14.90
2022-11-28T19:56:48.711Z,15.38
2022-11-28T19:59:33.742Z,15.43
2022-11-28T20:02:21.433Z,15.75
2022-11-28T20:05:06.442Z,16.17
2022-11-28T20:07:55.577Z,15.90
2022-11-28T20:10:43.695Z,16.60
2022-11-28T20:13:28.592Z,17.10
2022-11-28T20:16:17.456Z,15.70
2022-11-28T20:19:03.760Z,15.45
2022-11-28T20:21:48.509Z,15.70
2022-11-28T20:24:33.424Z,16.55
2022-11-28T20:27:18.514Z,15.30
2022-11-28T20:30:06.518Z,14.52
2022-11-28T20:32:54.077Z,13.40
2022-11-28T20:35:39.172Z,14.17
2022-11-28T20:38:24.042Z,14.52
2022-11-28T20:41:11.506Z,13.93
2022-11-28T20:43:58.326Z,14.05
2022-11-28T20:46:46.119Z,15.35
2022-11-28T20:49:31.373Z,16.97
2022-11-28T20:52:16.399Z,17.88
2022-11-28T20:55:01.623Z,17.00
2022-11-28T20:57:46.497Z,18.00
2022-11-28T21:00:31.380Z,17.23
2022-11-28T21:03:16.418Z,17.67
2022-11-28T21:06:01.852Z,15.88
2022-11-28T21:08:46.899Z,16.13
2022-11-28T21:11:55.676Z,16.02
2022-11-28T21:14:36.709Z,13.05
2022-11-28T21:17:22.205Z,12.00
2022-11-28T21:20:08.047Z,14.23
2022-11-28T21:22:52.885Z,12.15
2022-11-28T21:25:39.543Z,12.13
2022-11-28T21:28:24.458Z,11.45
2022-11-28T21:31:12.802Z,12.07
2022-11-28T21:33:58.794Z,12.23
2022-11-28T21:36:43.908Z,11.32
2022-11-28T21:39:28.989Z,11.95
2022-11-28T21:42:18.920Z,11.20
2022-11-28T21:45:05.700Z,11.10
2022-11-28T21:47:51.385Z,10.18
2022-11-28T21:50:36.384Z,9.20
2022-11-28T21:53:21.396Z,9.30
2022-11-28T21:56:06.596Z,8.40
2022-11-28T21:58:51.644Z,7.70
2022-11-28T22:01:36.830Z,8.25
2022-11-28T22:04:21.930Z,7.22
2022-11-28T22:07:07.012Z,7.63
2022-11-28T22:09:51.845Z,7.35
2022-11-28T22:12:36.963Z,7.03
2022-11-28T22:15:22.067Z,6.93
2022-11-28T22:18:06.929Z,6.68
2022-11-28T22:20:53.217Z,6.80
2022-11-28T22:23:39.405Z,7.18
2022-11-28T22:26:24.475Z,6.97
2022-11-28T22:29:09.589Z,6.80
2022-11-28T22:31:54.986Z,6.50
2022-11-28T22:34:40.367Z,6.55
2022-11-28T22:37:25.281Z,6.75
2022-11-28T22:40:11.035Z,6.30
2022-11-28T22:42:56.645Z,5.38
2022-11-28T22:45:41.772Z,6.50
2022-11-28T22:48:28.803Z,5.65
2022-11-28T22:51:17.549Z,6.20
2022-11-28T22:54:03.060Z,6.57
2022-11-28T22:56:48.240Z,6.25
2022-11-28T22:59:35.053Z,5.70
2022-11-28T23:02:20.213Z,6.30
2022-11-28T23:05:05.218Z,6.93
2022-11-28T23:07:50.160Z,8.33
2022-11-28T23:10:37.888Z,8.25
2022-11-28T23:13:23.056Z,9.00
2022-11-28T23:16:14.328Z,10.43
2022-11-28T23:19:01.631Z,13.65
2022-11-28T23:21:49.033Z,12.13
2022-11-28T23:24:33.784Z,10.65
2022-11-28T23:27:19.047Z,10.30
2022-11-28T23:30:04.809Z,11.02
2022-11-28T23:32:49.659Z,10.43
2022-11-28T23:35:34.614Z,9.07
2022-11-28T23:38:19.508Z,6.45
2022-11-28T23:41:04.639Z,4.95
2022-11-28T23:43:50.142Z,3.85
2022-11-28T23:46:35.615Z,4.03
2022-11-28T23:49:20.641Z,3.33
2022-11-28T23:52:05.863Z,3.75
2022-11-28T23:54:51.034Z,3.90
2022-11-28T23:57:36.234Z,3.20
